sensor_id;sensor_type;location;lat;lon;timestamp;P1;durP1;ratioP1;P2;durP2;ratioP2
24901;SDS011;31328;51.402;0.016;2023-04-15T00:01:30;7.50;;;5.83;;
24901;SDS011;31328;51.402;0.016;2023-04-15T00:03:59;8.07;;;5.90;;
24901;SDS011;31328;51.402;0.016;2023-04-15T00:06:25;6.80;;;5.70;;
24901;SDS011;31328;51.402;0.016;2023-04-15T00:08:52;7.73;;;5.17;;
24901;SDS011;31328;51.402;0.016;2023-04-15T00:11:19;8.67;;;5.37;;
24901;SDS011;31328;51.402;0.016;2023-04-15T00:13:45;9.27;;;5.90;;
24901;SDS011;31328;51.402;0.016;2023-04-15T00:16:11;6.37;;;4.80;;
24901;SDS011;31328;51.402;0.016;2023-04-15T00:18:37;6.43;;;4.57;;
24901;SDS011;31328;51.402;0.016;2023-04-15T00:21:04;5.83;;;4.50;;
24901;SDS011;31328;51.402;0.016;2023-04-15T00:23:30;6.00;;;4.53;;
24901;SDS011;31328;51.402;0.016;2023-04-15T00:25:56;5.33;;;3.80;;
24901;SDS011;31328;51.402;0.016;2023-04-15T00:28:23;3.80;;;3.33;;
24901;SDS011;31328;51.402;0.016;2023-04-15T00:30:49;5.53;;;3.20;;
24901;SDS011;31328;51.402;0.016;2023-04-15T00:33:15;6.83;;;3.67;;
24901;SDS011;31328;51.402;0.016;2023-04-15T00:35:42;4.27;;;3.40;;
24901;SDS011;31328;51.402;0.016;2023-04-15T00:38:08;4.03;;;2.97;;
24901;SDS011;31328;51.402;0.016;2023-04-15T00:40:35;4.33;;;3.20;;
24901;SDS011;31328;51.402;0.016;2023-04-15T00:43:02;4.67;;;3.20;;
24901;SDS011;31328;51.402;0.016;2023-04-15T00:45:28;4.93;;;3.53;;
24901;SDS011;31328;51.402;0.016;2023-04-15T00:47:55;5.43;;;3.80;;
24901;SDS011;31328;51.402;0.016;2023-04-15T00:50:21;6.63;;;3.87;;
24901;SDS011;31328;51.402;0.016;2023-04-15T00:52:48;5.73;;;4.03;;
24901;SDS011;31328;51.402;0.016;2023-04-15T00:55:14;6.33;;;4.30;;
24901;SDS011;31328;51.402;0.016;2023-04-15T00:57:41;8.23;;;4.77;;
24901;SDS011;31328;51.402;0.016;2023-04-15T01:00:07;7.83;;;4.73;;
24901;SDS011;31328;51.402;0.016;2023-04-15T01:02:36;7.97;;;5.30;;
24901;SDS011;31328;51.402;0.016;2023-04-15T01:05:03;7.47;;;5.00;;
24901;SDS011;31328;51.402;0.016;2023-04-15T01:07:30;7.20;;;4.87;;
24901;SDS011;31328;51.402;0.016;2023-04-15T01:09:56;10.03;;;6.60;;
24901;SDS011;31328;51.402;0.016;2023-04-15T01:12:25;7.13;;;5.70;;
24901;SDS011;31328;51.402;0.016;2023-04-15T01:14:52;8.00;;;5.60;;
24901;SDS011;31328;51.402;0.016;2023-04-15T01:17:20;8.07;;;5.83;;
24901;SDS011;31328;51.402;0.016;2023-04-15T01:19:46;9.30;;;5.63;;
24901;SDS011;31328;51.402;0.016;2023-04-15T01:22:13;7.57;;;5.30;;
24901;SDS011;31328;51.402;0.016;2023-04-15T01:24:39;6.57;;;5.23;;
24901;SDS011;31328;51.402;0.016;2023-04-15T01:27:08;8.77;;;5.67;;
24901;SDS011;31328;51.402;0.016;2023-04-15T01:29:36;9.23;;;6.03;;
24901;SDS011;31328;51.402;0.016;2023-04-15T01:32:04;7.40;;;5.77;;
24901;SDS011;31328;51.402;0.016;2023-04-15T01:37:34;7.95;;;5.75;;
24901;SDS011;31328;51.402;0.016;2023-04-15T01:40:01;7.53;;;6.23;;
24901;SDS011;31328;51.402;0.016;2023-04-15T01:42:28;10.53;;;5.77;;
24901;SDS011;31328;51.402;0.016;2023-04-15T01:44:56;7.87;;;5.67;;
24901;SDS011;31328;51.402;0.016;2023-04-15T01:47:23;8.40;;;5.07;;
24901;SDS011;31328;51.402;0.016;2023-04-15T01:49:51;8.17;;;6.20;;
24901;SDS011;31328;51.402;0.016;2023-04-15T01:52:19;7.17;;;5.70;;
24901;SDS011;31328;51.402;0.016;2023-04-15T01:54:47;6.77;;;5.27;;
24901;SDS011;31328;51.402;0.016;2023-04-15T01:57:14;7.53;;;5.80;;
24901;SDS011;31328;51.402;0.016;2023-04-15T01:59:42;8.87;;;4.70;;
24901;SDS011;31328;51.402;0.016;2023-04-15T02:02:10;7.87;;;5.00;;
24901;SDS011;31328;51.402;0.016;2023-04-15T02:04:38;7.87;;;4.70;;
24901;SDS011;31328;51.402;0.016;2023-04-15T02:07:05;6.80;;;4.57;;
24901;SDS011;31328;51.402;0.016;2023-04-15T02:09:33;5.57;;;4.07;;
24901;SDS011;31328;51.402;0.016;2023-04-15T02:12:01;6.60;;;4.37;;
24901;SDS011;31328;51.402;0.016;2023-04-15T02:14:29;6.57;;;4.23;;
24901;SDS011;31328;51.402;0.016;2023-04-15T02:16:57;7.07;;;4.57;;
24901;SDS011;31328;51.402;0.016;2023-04-15T02:19:33;8.37;;;4.90;;
24901;SDS011;31328;51.402;0.016;2023-04-15T02:22:03;6.67;;;4.57;;
24901;SDS011;31328;51.402;0.016;2023-04-15T02:24:33;7.50;;;5.10;;
24901;SDS011;31328;51.402;0.016;2023-04-15T02:27:00;7.13;;;4.60;;
24901;SDS011;31328;51.402;0.016;2023-04-15T02:29:30;6.30;;;4.03;;
24901;SDS011;31328;51.402;0.016;2023-04-15T02:31:58;7.23;;;4.70;;
24901;SDS011;31328;51.402;0.016;2023-04-15T02:34:27;8.77;;;4.50;;
24901;SDS011;31328;51.402;0.016;2023-04-15T02:36:57;4.63;;;3.77;;
24901;SDS011;31328;51.402;0.016;2023-04-15T02:39:25;7.40;;;4.37;;
24901;SDS011;31328;51.402;0.016;2023-04-15T02:41:53;5.07;;;3.83;;
24901;SDS011;31328;51.402;0.016;2023-04-15T02:44:21;3.90;;;3.47;;
24901;SDS011;31328;51.402;0.016;2023-04-15T02:46:53;4.30;;;3.30;;
24901;SDS011;31328;51.402;0.016;2023-04-15T02:49:22;3.83;;;3.43;;
24901;SDS011;31328;51.402;0.016;2023-04-15T02:51:50;3.87;;;3.00;;
24901;SDS011;31328;51.402;0.016;2023-04-15T02:54:19;5.00;;;3.27;;
24901;SDS011;31328;51.402;0.016;2023-04-15T02:56:49;4.40;;;3.10;;
24901;SDS011;31328;51.402;0.016;2023-04-15T02:59:16;3.57;;;2.77;;
24901;SDS011;31328;51.402;0.016;2023-04-15T03:01:44;3.90;;;3.43;;
24901;SDS011;31328;51.402;0.016;2023-04-15T03:04:12;4.60;;;3.40;;
24901;SDS011;31328;51.402;0.016;2023-04-15T03:06:40;5.33;;;3.20;;
24901;SDS011;31328;51.402;0.016;2023-04-15T03:09:09;5.37;;;3.33;;
24901;SDS011;31328;51.402;0.016;2023-04-15T03:11:38;4.23;;;3.30;;
24901;SDS011;31328;51.402;0.016;2023-04-15T03:14:09;4.77;;;3.60;;
24901;SDS011;31328;51.402;0.016;2023-04-15T03:16:41;4.63;;;3.67;;
24901;SDS011;31328;51.402;0.016;2023-04-15T03:19:08;4.67;;;3.97;;
24901;SDS011;31328;51.402;0.016;2023-04-15T03:21:38;5.53;;;4.33;;
24901;SDS011;31328;51.402;0.016;2023-04-15T03:24:06;5.37;;;4.13;;
24901;SDS011;31328;51.402;0.016;2023-04-15T03:26:33;6.57;;;4.20;;
24901;SDS011;31328;51.402;0.016;2023-04-15T03:29:10;5.97;;;4.17;;
24901;SDS011;31328;51.402;0.016;2023-04-15T03:31:40;5.87;;;4.47;;
24901;SDS011;31328;51.402;0.016;2023-04-15T03:34:07;6.37;;;4.60;;
24901;SDS011;31328;51.402;0.016;2023-04-15T03:36:36;8.07;;;5.07;;
24901;SDS011;31328;51.402;0.016;2023-04-15T03:39:03;6.80;;;4.67;;
24901;SDS011;31328;51.402;0.016;2023-04-15T03:41:31;7.93;;;4.70;;
24901;SDS011;31328;51.402;0.016;2023-04-15T03:43:59;7.73;;;4.60;;
24901;SDS011;31328;51.402;0.016;2023-04-15T03:46:26;7.90;;;4.93;;
24901;SDS011;31328;51.402;0.016;2023-04-15T03:48:54;6.70;;;5.20;;
24901;SDS011;31328;51.402;0.016;2023-04-15T03:51:22;7.00;;;5.47;;
24901;SDS011;31328;51.402;0.016;2023-04-15T03:53:49;7.37;;;4.93;;
24901;SDS011;31328;51.402;0.016;2023-04-15T03:56:17;6.10;;;4.70;;
24901;SDS011;31328;51.402;0.016;2023-04-15T03:58:44;6.97;;;5.00;;
24901;SDS011;31328;51.402;0.016;2023-04-15T04:01:12;9.70;;;5.50;;
24901;SDS011;31328;51.402;0.016;2023-04-15T04:03:40;6.33;;;4.90;;
24901;SDS011;31328;51.402;0.016;2023-04-15T04:06:07;6.57;;;5.00;;
24901;SDS011;31328;51.402;0.016;2023-04-15T04:08:36;5.60;;;4.07;;
24901;SDS011;31328;51.402;0.016;2023-04-15T04:11:04;5.90;;;4.10;;
24901;SDS011;31328;51.402;0.016;2023-04-15T04:13:31;5.20;;;3.87;;
24901;SDS011;31328;51.402;0.016;2023-04-15T04:15:59;7.93;;;4.50;;
24901;SDS011;31328;51.402;0.016;2023-04-15T04:18:26;5.33;;;4.40;;
24901;SDS011;31328;51.402;0.016;2023-04-15T04:20:54;6.50;;;3.97;;
24901;SDS011;31328;51.402;0.016;2023-04-15T04:23:22;5.23;;;3.90;;
24901;SDS011;31328;51.402;0.016;2023-04-15T04:25:50;5.93;;;4.07;;
24901;SDS011;31328;51.402;0.016;2023-04-15T04:28:18;5.63;;;3.73;;
24901;SDS011;31328;51.402;0.016;2023-04-15T04:30:46;5.33;;;4.07;;
24901;SDS011;31328;51.402;0.016;2023-04-15T04:33:13;6.03;;;4.27;;
24901;SDS011;31328;51.402;0.016;2023-04-15T04:35:41;7.47;;;4.50;;
24901;SDS011;31328;51.402;0.016;2023-04-15T04:38:08;5.63;;;4.40;;
24901;SDS011;31328;51.402;0.016;2023-04-15T04:40:36;6.90;;;4.17;;
24901;SDS011;31328;51.402;0.016;2023-04-15T04:43:04;5.70;;;4.57;;
24901;SDS011;31328;51.402;0.016;2023-04-15T04:45:32;6.53;;;4.73;;
24901;SDS011;31328;51.402;0.016;2023-04-15T04:47:59;6.10;;;4.73;;
24901;SDS011;31328;51.402;0.016;2023-04-15T04:50:27;5.93;;;4.30;;
24901;SDS011;31328;51.402;0.016;2023-04-15T04:52:55;5.73;;;4.30;;
24901;SDS011;31328;51.402;0.016;2023-04-15T04:55:22;6.67;;;4.90;;
24901;SDS011;31328;51.402;0.016;2023-04-15T04:57:50;6.57;;;5.03;;
24901;SDS011;31328;51.402;0.016;2023-04-15T05:00:17;9.00;;;5.37;;
24901;SDS011;31328;51.402;0.016;2023-04-15T05:02:45;6.80;;;5.07;;
24901;SDS011;31328;51.402;0.016;2023-04-15T05:05:13;6.00;;;4.63;;
24901;SDS011;31328;51.402;0.016;2023-04-15T05:07:41;7.60;;;4.70;;
24901;SDS011;31328;51.402;0.016;2023-04-15T05:10:08;7.23;;;4.50;;
24901;SDS011;31328;51.402;0.016;2023-04-15T05:12:36;6.73;;;4.37;;
24901;SDS011;31328;51.402;0.016;2023-04-15T05:15:05;6.93;;;4.43;;
24901;SDS011;31328;51.402;0.016;2023-04-15T05:17:33;6.73;;;4.27;;
24901;SDS011;31328;51.402;0.016;2023-04-15T05:20:01;5.83;;;4.10;;
24901;SDS011;31328;51.402;0.016;2023-04-15T05:22:30;6.37;;;4.47;;
24901;SDS011;31328;51.402;0.016;2023-04-15T05:24:57;6.10;;;4.07;;
24901;SDS011;31328;51.402;0.016;2023-04-15T05:27:25;6.70;;;4.03;;
24901;SDS011;31328;51.402;0.016;2023-04-15T05:29:53;6.07;;;4.30;;
24901;SDS011;31328;51.402;0.016;2023-04-15T05:32:20;6.10;;;4.60;;
24901;SDS011;31328;51.402;0.016;2023-04-15T05:34:48;6.50;;;4.43;;
24901;SDS011;31328;51.402;0.016;2023-04-15T05:37:16;6.43;;;4.57;;
24901;SDS011;31328;51.402;0.016;2023-04-15T05:39:44;6.33;;;4.67;;
24901;SDS011;31328;51.402;0.016;2023-04-15T05:42:11;7.43;;;5.10;;
24901;SDS011;31328;51.402;0.016;2023-04-15T05:44:39;7.83;;;5.23;;
24901;SDS011;31328;51.402;0.016;2023-04-15T05:47:06;6.73;;;5.40;;
24901;SDS011;31328;51.402;0.016;2023-04-15T05:49:34;7.73;;;5.90;;
24901;SDS011;31328;51.402;0.016;2023-04-15T05:52:02;8.27;;;6.07;;
24901;SDS011;31328;51.402;0.016;2023-04-15T05:54:30;7.63;;;5.30;;
24901;SDS011;31328;51.402;0.016;2023-04-15T05:56:58;7.47;;;5.67;;
24901;SDS011;31328;51.402;0.016;2023-04-15T05:59:25;8.47;;;5.73;;
24901;SDS011;31328;51.402;0.016;2023-04-15T06:01:54;8.17;;;5.67;;
24901;SDS011;31328;51.402;0.016;2023-04-15T06:04:22;8.60;;;5.70;;
24901;SDS011;31328;51.402;0.016;2023-04-15T06:06:50;10.23;;;6.67;;
24901;SDS011;31328;51.402;0.016;2023-04-15T06:09:18;8.97;;;6.20;;
24901;SDS011;31328;51.402;0.016;2023-04-15T06:11:45;11.47;;;6.90;;
24901;SDS011;31328;51.402;0.016;2023-04-15T06:14:13;10.10;;;7.37;;
24901;SDS011;31328;51.402;0.016;2023-04-15T06:16:40;12.40;;;7.50;;
24901;SDS011;31328;51.402;0.016;2023-04-15T06:19:08;12.90;;;7.93;;
24901;SDS011;31328;51.402;0.016;2023-04-15T06:21:35;11.20;;;8.00;;
24901;SDS011;31328;51.402;0.016;2023-04-15T06:24:03;11.93;;;8.27;;
24901;SDS011;31328;51.402;0.016;2023-04-15T06:26:31;12.10;;;8.13;;
24901;SDS011;31328;51.402;0.016;2023-04-15T06:28:59;13.30;;;8.37;;
24901;SDS011;31328;51.402;0.016;2023-04-15T06:31:26;11.50;;;7.87;;
24901;SDS011;31328;51.402;0.016;2023-04-15T06:33:54;10.67;;;6.93;;
24901;SDS011;31328;51.402;0.016;2023-04-15T06:36:22;11.33;;;7.40;;
24901;SDS011;31328;51.402;0.016;2023-04-15T06:38:49;9.50;;;7.23;;
24901;SDS011;31328;51.402;0.016;2023-04-15T06:41:17;11.80;;;7.60;;
24901;SDS011;31328;51.402;0.016;2023-04-15T06:43:44;11.40;;;7.20;;
24901;SDS011;31328;51.402;0.016;2023-04-15T06:46:12;9.73;;;6.93;;
24901;SDS011;31328;51.402;0.016;2023-04-15T06:48:40;9.20;;;7.03;;
24901;SDS011;31328;51.402;0.016;2023-04-15T06:51:07;9.57;;;6.67;;
24901;SDS011;31328;51.402;0.016;2023-04-15T06:53:35;9.57;;;6.50;;
24901;SDS011;31328;51.402;0.016;2023-04-15T06:56:07;9.37;;;6.50;;
24901;SDS011;31328;51.402;0.016;2023-04-15T06:58:35;9.27;;;6.57;;
24901;SDS011;31328;51.402;0.016;2023-04-15T07:01:03;10.03;;;6.70;;
24901;SDS011;31328;51.402;0.016;2023-04-15T07:03:31;9.00;;;6.57;;
24901;SDS011;31328;51.402;0.016;2023-04-15T07:05:58;9.73;;;7.27;;
24901;SDS011;31328;51.402;0.016;2023-04-15T07:08:27;9.47;;;6.20;;
24901;SDS011;31328;51.402;0.016;2023-04-15T07:10:55;8.40;;;6.27;;
24901;SDS011;31328;51.402;0.016;2023-04-15T07:13:23;11.03;;;6.20;;
24901;SDS011;31328;51.402;0.016;2023-04-15T07:15:50;8.67;;;6.47;;
24901;SDS011;31328;51.402;0.016;2023-04-15T07:18:18;9.43;;;6.83;;
24901;SDS011;31328;51.402;0.016;2023-04-15T07:20:45;10.20;;;7.30;;
24901;SDS011;31328;51.402;0.016;2023-04-15T07:23:13;9.17;;;6.27;;
24901;SDS011;31328;51.402;0.016;2023-04-15T07:25:40;9.40;;;6.37;;
24901;SDS011;31328;51.402;0.016;2023-04-15T07:28:08;7.47;;;5.90;;
24901;SDS011;31328;51.402;0.016;2023-04-15T07:30:36;7.80;;;5.77;;
24901;SDS011;31328;51.402;0.016;2023-04-15T07:33:03;8.33;;;5.87;;
24901;SDS011;31328;51.402;0.016;2023-04-15T07:35:31;6.70;;;5.07;;
24901;SDS011;31328;51.402;0.016;2023-04-15T07:37:59;6.60;;;4.90;;
24901;SDS011;31328;51.402;0.016;2023-04-15T07:40:26;8.00;;;5.43;;
24901;SDS011;31328;51.402;0.016;2023-04-15T07:42:57;6.60;;;4.60;;
24901;SDS011;31328;51.402;0.016;2023-04-15T07:45:24;6.00;;;4.37;;
24901;SDS011;31328;51.402;0.016;2023-04-15T07:47:53;7.13;;;4.53;;
24901;SDS011;31328;51.402;0.016;2023-04-15T07:50:22;5.73;;;4.20;;
24901;SDS011;31328;51.402;0.016;2023-04-15T07:52:50;5.53;;;4.20;;
24901;SDS011;31328;51.402;0.016;2023-04-15T07:55:18;8.57;;;4.60;;
24901;SDS011;31328;51.402;0.016;2023-04-15T07:57:48;5.63;;;4.30;;
24901;SDS011;31328;51.402;0.016;2023-04-15T08:00:15;4.93;;;4.27;;
24901;SDS011;31328;51.402;0.016;2023-04-15T08:02:44;5.07;;;4.50;;
24901;SDS011;31328;51.402;0.016;2023-04-15T08:05:14;6.03;;;4.27;;
24901;SDS011;31328;51.402;0.016;2023-04-15T08:07:41;5.80;;;4.60;;
24901;SDS011;31328;51.402;0.016;2023-04-15T08:10:09;8.03;;;5.87;;
24901;SDS011;31328;51.402;0.016;2023-04-15T08:12:37;5.23;;;4.43;;
24901;SDS011;31328;51.402;0.016;2023-04-15T08:15:05;6.40;;;5.13;;
24901;SDS011;31328;51.402;0.016;2023-04-15T08:17:34;6.50;;;4.50;;
24901;SDS011;31328;51.402;0.016;2023-04-15T08:20:02;6.63;;;5.47;;
24901;SDS011;31328;51.402;0.016;2023-04-15T08:22:31;7.03;;;4.70;;
24901;SDS011;31328;51.402;0.016;2023-04-15T08:24:59;7.23;;;4.63;;
24901;SDS011;31328;51.402;0.016;2023-04-15T08:27:26;8.27;;;5.93;;
24901;SDS011;31328;51.402;0.016;2023-04-15T08:29:54;8.33;;;5.50;;
24901;SDS011;31328;51.402;0.016;2023-04-15T08:32:21;8.27;;;5.50;;
24901;SDS011;31328;51.402;0.016;2023-04-15T08:34:49;7.20;;;5.27;;
24901;SDS011;31328;51.402;0.016;2023-04-15T08:37:17;9.03;;;6.20;;
24901;SDS011;31328;51.402;0.016;2023-04-15T08:39:44;9.47;;;5.60;;
24901;SDS011;31328;51.402;0.016;2023-04-15T08:42:15;8.63;;;6.23;;
24901;SDS011;31328;51.402;0.016;2023-04-15T08:44:44;9.00;;;6.63;;
24901;SDS011;31328;51.402;0.016;2023-04-15T08:47:13;9.43;;;7.00;;
24901;SDS011;31328;51.402;0.016;2023-04-15T08:49:46;9.63;;;6.97;;
24901;SDS011;31328;51.402;0.016;2023-04-15T08:52:19;8.77;;;6.53;;
24901;SDS011;31328;51.402;0.016;2023-04-15T08:54:48;10.03;;;6.40;;
24901;SDS011;31328;51.402;0.016;2023-04-15T08:57:16;8.47;;;6.33;;
24901;SDS011;31328;51.402;0.016;2023-04-15T08:59:44;8.90;;;7.20;;
24901;SDS011;31328;51.402;0.016;2023-04-15T09:02:11;9.73;;;6.63;;
24901;SDS011;31328;51.402;0.016;2023-04-15T09:04:39;10.13;;;6.50;;
24901;SDS011;31328;51.402;0.016;2023-04-15T09:07:07;11.30;;;6.80;;
24901;SDS011;31328;51.402;0.016;2023-04-15T09:09:34;9.43;;;7.27;;
24901;SDS011;31328;51.402;0.016;2023-04-15T09:12:03;8.80;;;7.00;;
24901;SDS011;31328;51.402;0.016;2023-04-15T09:14:30;13.13;;;7.83;;
24901;SDS011;31328;51.402;0.016;2023-04-15T09:17:00;10.73;;;7.73;;
24901;SDS011;31328;51.402;0.016;2023-04-15T09:19:30;10.53;;;7.07;;
24901;SDS011;31328;51.402;0.016;2023-04-15T09:21:59;10.20;;;7.83;;
24901;SDS011;31328;51.402;0.016;2023-04-15T09:24:35;12.23;;;8.80;;
24901;SDS011;31328;51.402;0.016;2023-04-15T09:27:04;13.53;;;8.77;;
24901;SDS011;31328;51.402;0.016;2023-04-15T09:29:32;10.60;;;8.10;;
24901;SDS011;31328;51.402;0.016;2023-04-15T09:32:12;9.63;;;7.23;;
24901;SDS011;31328;51.402;0.016;2023-04-15T09:34:41;8.73;;;6.40;;
24901;SDS011;31328;51.402;0.016;2023-04-15T09:37:09;8.23;;;6.43;;
24901;SDS011;31328;51.402;0.016;2023-04-15T09:39:50;7.97;;;6.40;;
24901;SDS011;31328;51.402;0.016;2023-04-15T09:42:18;7.87;;;6.23;;
24901;SDS011;31328;51.402;0.016;2023-04-15T09:44:52;6.28;;;5.57;;
24901;SDS011;31328;51.402;0.016;2023-04-15T09:47:29;7.37;;;5.73;;
24901;SDS011;31328;51.402;0.016;2023-04-15T09:49:58;6.93;;;5.30;;
24901;SDS011;31328;51.402;0.016;2023-04-15T09:52:27;6.43;;;5.63;;
24901;SDS011;31328;51.402;0.016;2023-04-15T09:54:58;7.50;;;5.13;;
24901;SDS011;31328;51.402;0.016;2023-04-15T09:57:33;5.07;;;4.53;;
24901;SDS011;31328;51.402;0.016;2023-04-15T10:00:05;7.60;;;5.13;;
24901;SDS011;31328;51.402;0.016;2023-04-15T10:02:36;5.07;;;4.47;;
24901;SDS011;31328;51.402;0.016;2023-04-15T10:05:05;6.17;;;4.63;;
24901;SDS011;31328;51.402;0.016;2023-04-15T10:07:34;7.53;;;5.73;;
24901;SDS011;31328;51.402;0.016;2023-04-15T10:10:02;6.27;;;5.23;;
24901;SDS011;31328;51.402;0.016;2023-04-15T10:12:31;6.57;;;5.20;;
24901;SDS011;31328;51.402;0.016;2023-04-15T10:15:01;6.17;;;5.57;;
24901;SDS011;31328;51.402;0.016;2023-04-15T10:17:33;7.18;;;5.15;;
24901;SDS011;31328;51.402;0.016;2023-04-15T10:20:03;9.33;;;6.10;;
24901;SDS011;31328;51.402;0.016;2023-04-15T10:22:32;7.33;;;5.80;;
24901;SDS011;31328;51.402;0.016;2023-04-15T10:24:59;8.40;;;6.10;;
24901;SDS011;31328;51.402;0.016;2023-04-15T10:27:30;7.60;;;5.80;;
24901;SDS011;31328;51.402;0.016;2023-04-15T10:29:59;7.27;;;5.83;;
24901;SDS011;31328;51.402;0.016;2023-04-15T10:32:28;6.57;;;5.97;;
24901;SDS011;31328;51.402;0.016;2023-04-15T10:34:56;6.57;;;5.53;;
24901;SDS011;31328;51.402;0.016;2023-04-15T10:37:34;8.73;;;6.20;;
24901;SDS011;31328;51.402;0.016;2023-04-15T10:42:49;7.07;;;5.33;;
24901;SDS011;31328;51.402;0.016;2023-04-15T10:45:17;8.63;;;5.60;;
24901;SDS011;31328;51.402;0.016;2023-04-15T10:47:45;7.80;;;5.53;;
24901;SDS011;31328;51.402;0.016;2023-04-15T10:50:17;7.33;;;6.30;;
24901;SDS011;31328;51.402;0.016;2023-04-15T10:52:45;6.00;;;5.13;;
24901;SDS011;31328;51.402;0.016;2023-04-15T10:55:23;6.27;;;5.63;;
24901;SDS011;31328;51.402;0.016;2023-04-15T10:57:52;6.25;;;4.80;;
24901;SDS011;31328;51.402;0.016;2023-04-15T11:00:25;5.53;;;4.70;;
24901;SDS011;31328;51.402;0.016;2023-04-15T11:02:58;5.97;;;5.30;;
24901;SDS011;31328;51.402;0.016;2023-04-15T11:08:05;6.72;;;5.35;;
24901;SDS011;31328;51.402;0.016;2023-04-15T11:13:03;6.15;;;5.00;;
24901;SDS011;31328;51.402;0.016;2023-04-15T11:15:38;8.20;;;5.13;;
24901;SDS011;31328;51.402;0.016;2023-04-15T11:20:46;6.45;;;5.43;;
24901;SDS011;31328;51.402;0.016;2023-04-15T11:23:17;5.45;;;4.57;;
24901;SDS011;31328;51.402;0.016;2023-04-15T11:25:46;6.97;;;5.15;;
24901;SDS011;31328;51.402;0.016;2023-04-15T11:28:14;7.00;;;4.45;;
24901;SDS011;31328;51.402;0.016;2023-04-15T11:30:42;7.88;;;4.65;;
24901;SDS011;31328;51.402;0.016;2023-04-15T11:33:10;7.75;;;5.30;;
24901;SDS011;31328;51.402;0.016;2023-04-15T11:35:39;5.47;;;4.57;;
24901;SDS011;31328;51.402;0.016;2023-04-15T11:38:08;6.47;;;5.05;;
24901;SDS011;31328;51.402;0.016;2023-04-15T11:40:38;5.53;;;4.13;;
24901;SDS011;31328;51.402;0.016;2023-04-15T11:43:11;7.63;;;4.53;;
24901;SDS011;31328;51.402;0.016;2023-04-15T11:45:53;6.88;;;5.05;;
24901;SDS011;31328;51.402;0.016;2023-04-15T11:48:23;5.68;;;3.90;;
24901;SDS011;31328;51.402;0.016;2023-04-15T11:50:59;7.32;;;3.50;;
24901;SDS011;31328;51.402;0.016;2023-04-15T11:53:45;7.20;;;5.32;;
24901;SDS011;31328;51.402;0.016;2023-04-15T11:56:18;5.93;;;5.30;;
24901;SDS011;31328;51.402;0.016;2023-04-15T11:58:46;6.45;;;4.55;;
24901;SDS011;31328;51.402;0.016;2023-04-15T12:01:15;8.30;;;5.10;;
24901;SDS011;31328;51.402;0.016;2023-04-15T12:03:42;8.77;;;4.32;;
24901;SDS011;31328;51.402;0.016;2023-04-15T12:06:23;5.10;;;4.28;;
24901;SDS011;31328;51.402;0.016;2023-04-15T12:11:17;6.35;;;4.10;;
24901;SDS011;31328;51.402;0.016;2023-04-15T12:13:55;5.63;;;4.00;;
24901;SDS011;31328;51.402;0.016;2023-04-15T12:16:34;7.30;;;3.75;;
24901;SDS011;31328;51.402;0.016;2023-04-15T12:19:04;5.20;;;4.05;;
24901;SDS011;31328;51.402;0.016;2023-04-15T12:21:33;8.10;;;4.43;;
24901;SDS011;31328;51.402;0.016;2023-04-15T12:24:08;8.48;;;4.03;;
24901;SDS011;31328;51.402;0.016;2023-04-15T12:26:46;5.88;;;4.80;;
24901;SDS011;31328;51.402;0.016;2023-04-15T12:29:17;9.10;;;4.40;;
24901;SDS011;31328;51.402;0.016;2023-04-15T12:31:51;5.07;;;3.75;;
24901;SDS011;31328;51.402;0.016;2023-04-15T12:34:32;7.53;;;4.80;;
24901;SDS011;31328;51.402;0.016;2023-04-15T12:37:07;7.13;;;4.28;;
24901;SDS011;31328;51.402;0.016;2023-04-15T12:39:39;5.20;;;3.70;;
24901;SDS011;31328;51.402;0.016;2023-04-15T12:42:07;6.40;;;3.45;;
24901;SDS011;31328;51.402;0.016;2023-04-15T12:44:34;5.93;;;3.88;;
24901;SDS011;31328;51.402;0.016;2023-04-15T12:47:01;6.93;;;3.67;;
24901;SDS011;31328;51.402;0.016;2023-04-15T12:49:27;5.10;;;3.85;;
24901;SDS011;31328;51.402;0.016;2023-04-15T12:51:55;4.60;;;3.42;;
24901;SDS011;31328;51.402;0.016;2023-04-15T12:54:24;4.25;;;3.67;;
24901;SDS011;31328;51.402;0.016;2023-04-15T12:56:52;5.07;;;3.47;;
24901;SDS011;31328;51.402;0.016;2023-04-15T12:59:19;6.40;;;4.13;;
24901;SDS011;31328;51.402;0.016;2023-04-15T13:01:46;4.85;;;3.08;;
24901;SDS011;31328;51.402;0.016;2023-04-15T13:04:14;5.63;;;3.47;;
24901;SDS011;31328;51.402;0.016;2023-04-15T13:06:40;5.80;;;3.50;;
24901;SDS011;31328;51.402;0.016;2023-04-15T13:09:07;6.15;;;3.38;;
24901;SDS011;31328;51.402;0.016;2023-04-15T13:11:33;3.85;;;3.03;;
24901;SDS011;31328;51.402;0.016;2023-04-15T13:14:02;5.45;;;3.25;;
24901;SDS011;31328;51.402;0.016;2023-04-15T13:16:29;6.35;;;3.55;;
24901;SDS011;31328;51.402;0.016;2023-04-15T13:18:57;4.18;;;3.53;;
24901;SDS011;31328;51.402;0.016;2023-04-15T13:21:24;5.60;;;3.80;;
24901;SDS011;31328;51.402;0.016;2023-04-15T13:23:51;4.78;;;3.47;;
24901;SDS011;31328;51.402;0.016;2023-04-15T13:26:18;3.88;;;3.22;;
24901;SDS011;31328;51.402;0.016;2023-04-15T13:28:45;7.32;;;3.55;;
24901;SDS011;31328;51.402;0.016;2023-04-15T13:31:11;6.47;;;4.05;;
24901;SDS011;31328;51.402;0.016;2023-04-15T13:33:37;7.25;;;4.35;;
24901;SDS011;31328;51.402;0.016;2023-04-15T13:36:04;7.43;;;3.42;;
24901;SDS011;31328;51.402;0.016;2023-04-15T13:38:30;5.15;;;3.25;;
24901;SDS011;31328;51.402;0.016;2023-04-15T13:40:57;7.85;;;3.20;;
24901;SDS011;31328;51.402;0.016;2023-04-15T13:43:23;5.05;;;3.30;;
24901;SDS011;31328;51.402;0.016;2023-04-15T13:45:49;5.10;;;3.45;;
24901;SDS011;31328;51.402;0.016;2023-04-15T13:48:16;5.75;;;3.28;;
24901;SDS011;31328;51.402;0.016;2023-04-15T13:50:42;4.25;;;3.47;;
24901;SDS011;31328;51.402;0.016;2023-04-15T13:53:10;7.15;;;3.28;;
24901;SDS011;31328;51.402;0.016;2023-04-15T13:55:37;5.22;;;3.10;;
24901;SDS011;31328;51.402;0.016;2023-04-15T13:58:06;6.28;;;3.20;;
24901;SDS011;31328;51.402;0.016;2023-04-15T14:00:33;5.40;;;3.15;;
24901;SDS011;31328;51.402;0.016;2023-04-15T14:03:00;4.82;;;3.50;;
24901;SDS011;31328;51.402;0.016;2023-04-15T14:05:26;5.85;;;3.03;;
24901;SDS011;31328;51.402;0.016;2023-04-15T14:07:52;4.85;;;3.05;;
24901;SDS011;31328;51.402;0.016;2023-04-15T14:10:18;9.15;;;3.72;;
24901;SDS011;31328;51.402;0.016;2023-04-15T14:12:45;3.35;;;2.60;;
24901;SDS011;31328;51.402;0.016;2023-04-15T14:15:11;4.70;;;3.50;;
24901;SDS011;31328;51.402;0.016;2023-04-15T14:17:37;4.00;;;3.20;;
24901;SDS011;31328;51.402;0.016;2023-04-15T14:20:05;8.88;;;3.97;;
24901;SDS011;31328;51.402;0.016;2023-04-15T14:22:32;5.38;;;3.47;;
24901;SDS011;31328;51.402;0.016;2023-04-15T14:24:59;4.28;;;2.85;;
24901;SDS011;31328;51.402;0.016;2023-04-15T14:27:25;5.15;;;2.88;;
24901;SDS011;31328;51.402;0.016;2023-04-15T14:29:51;3.97;;;2.78;;
24901;SDS011;31328;51.402;0.016;2023-04-15T14:32:19;4.55;;;3.17;;
24901;SDS011;31328;51.402;0.016;2023-04-15T14:34:45;5.03;;;2.90;;
24901;SDS011;31328;51.402;0.016;2023-04-15T14:37:11;4.20;;;2.97;;
24901;SDS011;31328;51.402;0.016;2023-04-15T14:39:38;4.25;;;3.00;;
24901;SDS011;31328;51.402;0.016;2023-04-15T14:42:04;4.63;;;3.00;;
24901;SDS011;31328;51.402;0.016;2023-04-15T14:44:30;5.78;;;3.65;;
24901;SDS011;31328;51.402;0.016;2023-04-15T14:46:57;7.15;;;3.45;;
24901;SDS011;31328;51.402;0.016;2023-04-15T14:49:23;4.78;;;3.00;;
24901;SDS011;31328;51.402;0.016;2023-04-15T14:51:50;6.70;;;3.55;;
24901;SDS011;31328;51.402;0.016;2023-04-15T14:54:16;5.03;;;3.33;;
24901;SDS011;31328;51.402;0.016;2023-04-15T14:56:43;5.65;;;3.63;;
24901;SDS011;31328;51.402;0.016;2023-04-15T14:59:09;5.57;;;3.45;;
24901;SDS011;31328;51.402;0.016;2023-04-15T15:01:35;4.80;;;3.45;;
24901;SDS011;31328;51.402;0.016;2023-04-15T15:04:02;5.40;;;3.60;;
24901;SDS011;31328;51.402;0.016;2023-04-15T15:06:28;8.38;;;3.55;;
24901;SDS011;31328;51.402;0.016;2023-04-15T15:08:56;3.45;;;3.08;;